createdAt,value
2018-09-13T00:00:29.581Z,100423.00
2018-09-13T00:02:57.397Z,100414.00
2018-09-13T00:05:25.502Z,100412.00
2018-09-13T00:07:52.858Z,100410.00
2018-09-13T00:10:20.493Z,100418.00
2018-09-13T00:12:48.403Z,100419.00
2018-09-13T00:15:15.955Z,100417.00
2018-09-13T00:17:43.601Z,100413.00
2018-09-13T00:20:12.514Z,100415.00
2018-09-13T00:22:40.195Z,100420.00
2018-09-13T00:25:07.801Z,100422.00
2018-09-13T00:27:35.740Z,100424.00
2018-09-13T00:30:03.625Z,100424.00
2018-09-13T00:32:31.174Z,100426.00
2018-09-13T00:34:59.168Z,100427.00
2018-09-13T00:37:26.725Z,100426.00
2018-09-13T00:39:54.376Z,100426.00
2018-09-13T00:42:22.161Z,100416.00
2018-09-13T00:44:49.744Z,100419.00
2018-09-13T00:47:17.484Z,100417.00
2018-09-13T00:49:45.134Z,100415.00
2018-09-13T00:52:12.697Z,100410.00
2018-09-13T00:54:40.589Z,100404.00
2018-09-13T00:57:08.280Z,100411.00
2018-09-13T00:59:35.799Z,100419.00
2018-09-13T01:02:03.442Z,100427.00
2018-09-13T01:04:30.990Z,100437.00
2018-09-13T01:06:58.600Z,100432.00
2018-09-13T01:09:26.179Z,100436.00
2018-09-13T01:11:54.012Z,100439.00
2018-09-13T01:14:21.555Z,100436.00
2018-09-13T01:16:49.181Z,100429.00
2018-09-13T01:19:16.702Z,100433.00
2018-09-13T01:21:44.261Z,100431.00
2018-09-13T01:24:11.948Z,100421.00
2018-09-13T01:26:39.580Z,100421.00
2018-09-13T01:29:07.509Z,100420.00
2018-09-13T01:31:35.185Z,100411.00
2018-09-13T01:34:02.872Z,100413.00
2018-09-13T01:36:31.227Z,100410.00
2018-09-13T01:38:58.851Z,100412.00
2018-09-13T01:41:26.523Z,100416.00
2018-09-13T01:43:54.312Z,100414.00
2018-09-13T01:46:22.040Z,100411.00
2018-09-13T01:48:49.783Z,100407.00
2018-09-13T01:51:17.560Z,100405.00
2018-09-13T01:53:45.239Z,100408.00
2018-09-13T01:56:12.926Z,100401.00
2018-09-13T01:58:41.374Z,100401.00
2018-09-13T02:01:09.140Z,100393.00
2018-09-13T02:03:36.841Z,100396.00
2018-09-13T02:06:04.768Z,100398.00
2018-09-13T02:08:32.444Z,100399.00
2018-09-13T02:11:01.114Z,100399.00
2018-09-13T02:13:28.865Z,100398.00
2018-09-13T02:15:56.587Z,100393.00
2018-09-13T02:18:24.266Z,100389.00
2018-09-13T02:20:52.422Z,100388.00
2018-09-13T02:23:20.584Z,100394.00
2018-09-13T02:25:48.209Z,100395.00
2018-09-13T02:28:16.124Z,100398.00
2018-09-13T02:30:43.815Z,100392.00
2018-09-13T02:33:11.463Z,100390.00
2018-09-13T02:35:39.599Z,100384.00
2018-09-13T02:38:07.271Z,100380.00
2018-09-13T02:40:34.919Z,100378.00
2018-09-13T02:43:02.602Z,100374.00
2018-09-13T02:45:30.322Z,100370.00
2018-09-13T02:47:58.005Z,100372.00
2018-09-13T02:50:25.951Z,100372.00
2018-09-13T02:52:53.608Z,100375.00
2018-09-13T02:55:21.172Z,100375.00
2018-09-13T02:57:48.968Z,100373.00
2018-09-13T03:00:16.525Z,100369.00
2018-09-13T03:02:44.176Z,100365.00
2018-09-13T03:05:12.084Z,100362.00
2018-09-13T03:07:39.764Z,100361.00
2018-09-13T03:10:07.389Z,100361.00
2018-09-13T03:12:34.958Z,100354.00
2018-09-13T03:15:02.681Z,100363.00
2018-09-13T03:17:30.509Z,100361.00
2018-09-13T03:19:58.074Z,100360.00
2018-09-13T03:22:25.674Z,100359.00
2018-09-13T03:24:53.940Z,100362.00
2018-09-13T03:27:21.525Z,100361.00
2018-09-13T03:29:49.267Z,100364.00
2018-09-13T03:32:16.855Z,100360.00
2018-09-13T03:34:44.492Z,100358.00
2018-09-13T03:37:12.061Z,100367.00
2018-09-13T03:39:39.712Z,100372.00
2018-09-13T03:42:07.337Z,100372.00
2018-09-13T03:44:34.858Z,100370.00
2018-09-13T03:47:02.561Z,100372.00
2018-09-13T03:49:30.179Z,100371.00
2018-09-13T03:51:58.384Z,100376.00
2018-09-13T03:54:26.326Z,100383.00
2018-09-13T03:56:53.891Z,100389.00
2018-09-13T03:59:21.544Z,100393.00
2018-09-13T04:01:49.339Z,100395.00
2018-09-13T04:04:16.943Z,100398.00
2018-09-13T04:06:45.175Z,100400.00
2018-09-13T04:09:13.226Z,100398.00
2018-09-13T04:11:40.944Z,100397.00
2018-09-13T04:14:08.872Z,100403.00
2018-09-13T04:16:36.492Z,100405.00
2018-09-13T04:19:04.356Z,100403.00
2018-09-13T04:21:31.928Z,100399.00
2018-09-13T04:23:59.501Z,100401.00
2018-09-13T04:26:28.182Z,100400.00
2018-09-13T04:28:55.767Z,100395.00
2018-09-13T04:31:23.334Z,100396.00
2018-09-13T04:33:50.947Z,100397.00
2018-09-13T04:36:19.388Z,100399.00
2018-09-13T04:38:46.956Z,100398.00
2018-09-13T04:41:14.544Z,100396.00
2018-09-13T04:43:42.068Z,100389.00
2018-09-13T04:46:09.656Z,100383.00
2018-09-13T04:48:37.575Z,100384.00
2018-09-13T04:51:05.487Z,100385.00
2018-09-13T04:53:33.219Z,100383.00
2018-09-13T04:56:01.200Z,100385.00
2018-09-13T04:58:28.759Z,100383.00
2018-09-13T05:00:56.533Z,100386.00
2018-09-13T05:03:24.100Z,100386.00
2018-09-13T05:05:51.623Z,100384.00
2018-09-13T05:08:19.624Z,100389.00
2018-09-13T05:10:47.148Z,100383.00
2018-09-13T05:13:14.692Z,100373.00
2018-09-13T05:15:42.536Z,100374.00
2018-09-13T05:18:10.208Z,100376.00
2018-09-13T05:20:37.418Z,100377.00
2018-09-13T05:23:05.826Z,100379.00
2018-09-13T05:25:33.424Z,100377.00
2018-09-13T05:28:01.279Z,100379.00
2018-09-13T05:30:29.377Z,100378.00
2018-09-13T05:32:56.948Z,100369.00
2018-09-13T05:35:25.125Z,100365.00
2018-09-13T05:37:52.924Z,100368.00
2018-09-13T05:40:21.435Z,100365.00
2018-09-13T05:42:49.232Z,100362.00
2018-09-13T05:45:17.183Z,100365.00
2018-09-13T05:47:44.885Z,100356.00
2018-09-13T05:50:13.292Z,100361.00
2018-09-13T05:52:41.515Z,100369.00
2018-09-13T05:55:09.135Z,100379.00
2018-09-13T05:57:36.976Z,100384.00
2018-09-13T06:00:04.951Z,100387.00
2018-09-13T06:02:32.488Z,100387.00
2018-09-13T06:05:00.265Z,100387.00
2018-09-13T06:07:27.944Z,100390.00
2018-09-13T06:09:55.560Z,100400.00
2018-09-13T06:12:24.937Z,100408.00
2018-09-13T06:14:52.473Z,100419.00
2018-09-13T06:17:20.119Z,100422.00
2018-09-13T06:19:48.099Z,100411.00
2018-09-13T06:22:15.789Z,100403.00
2018-09-13T06:24:43.336Z,100401.00
2018-09-13T06:27:11.124Z,100408.00
2018-09-13T06:29:38.749Z,100422.00
2018-09-13T06:32:06.633Z,100412.00
2018-09-13T06:34:34.224Z,100404.00
2018-09-13T06:37:02.047Z,100403.00
2018-09-13T06:39:29.800Z,100407.00
2018-09-13T06:41:57.838Z,100399.00
2018-09-13T06:44:25.456Z,100395.00
2018-09-13T06:46:53.026Z,100405.00
2018-09-13T06:49:20.843Z,100408.00
2018-09-13T06:51:48.452Z,100402.00
2018-09-13T06:54:16.038Z,100401.00
2018-09-13T06:56:43.882Z,100399.00
2018-09-13T06:59:11.408Z,100396.00
2018-09-13T07:01:38.997Z,100386.00
2018-09-13T07:04:06.871Z,100379.00
2018-09-13T07:06:34.539Z,100377.00
2018-09-13T07:09:02.472Z,100380.00
2018-09-13T07:11:30.012Z,100381.00
2018-09-13T07:13:57.571Z,100387.00
2018-09-13T07:16:25.401Z,100392.00
2018-09-13T07:18:53.283Z,100386.00
2018-09-13T07:21:21.106Z,100377.00
2018-09-13T07:23:48.641Z,100369.00
2018-09-13T07:26:16.388Z,100365.00
2018-09-13T07:28:43.967Z,100365.00
2018-09-13T07:31:11.816Z,100366.00
2018-09-13T07:33:39.343Z,100356.00
2018-09-13T07:36:07.175Z,100357.00
2018-09-13T07:38:34.724Z,100348.00
2018-09-13T07:41:02.282Z,100347.00
2018-09-13T07:43:29.980Z,100346.00
2018-09-13T07:45:57.605Z,100350.00
2018-09-13T07:48:25.160Z,100348.00
2018-09-13T07:50:52.768Z,100348.00
2018-09-13T07:53:20.404Z,100355.00
2018-09-13T07:55:48.173Z,100361.00
2018-09-13T07:58:15.752Z,100352.00
2018-09-13T08:00:43.812Z,100350.00
2018-09-13T08:03:11.361Z,100357.00
2018-09-13T08:05:38.916Z,100355.00
2018-09-13T08:08:06.515Z,100349.00
2018-09-13T08:10:34.112Z,100345.00
2018-09-13T08:13:01.728Z,100340.00
2018-09-13T08:15:29.804Z,100341.00
2018-09-13T08:17:57.357Z,100338.00
2018-09-13T08:20:24.928Z,100339.00
2018-09-13T08:22:52.858Z,100340.00
2018-09-13T08:25:20.374Z,100343.00
2018-09-13T08:27:48.267Z,100345.00
2018-09-13T08:30:15.814Z,100344.00
2018-09-13T08:32:43.411Z,100346.00
2018-09-13T08:35:11.378Z,100351.00
2018-09-13T08:37:38.839Z,100348.00
2018-09-13T08:40:06.285Z,100344.00
2018-09-13T08:42:33.807Z,100354.00
2018-09-13T08:45:01.724Z,100356.00
2018-09-13T08:47:29.373Z,100355.00
2018-09-13T08:49:57.257Z,100361.00
2018-09-13T08:52:24.912Z,100364.00
2018-09-13T08:54:52.433Z,100357.00
2018-09-13T08:57:20.380Z,100365.00
2018-09-13T08:59:47.975Z,100363.00
2018-09-13T09:02:15.581Z,100353.00
2018-09-13T09:04:43.267Z,100354.00
2018-09-13T09:07:10.896Z,100350.00
2018-09-13T09:09:38.456Z,100350.00
2018-09-13T09:12:06.593Z,100344.00
2018-09-13T09:14:34.146Z,100348.00
2018-09-13T09:17:01.741Z,100351.00
2018-09-13T09:19:29.693Z,100350.00
2018-09-13T09:21:57.412Z,100361.00
2018-09-13T09:24:25.732Z,100362.00
2018-09-13T09:26:53.409Z,100363.00
2018-09-13T09:29:21.967Z,100363.00
2018-09-13T09:31:49.511Z,100358.00
2018-09-13T09:34:17.522Z,100359.00
2018-09-13T09:36:45.093Z,100356.00
2018-09-13T09:39:14.040Z,100353.00
2018-09-13T09:41:42.060Z,100348.00
2018-09-13T09:44:09.805Z,100345.00
2018-09-13T09:46:37.773Z,100343.00
2018-09-13T09:49:05.688Z,100345.00
2018-09-13T09:51:33.219Z,100350.00
2018-09-13T09:54:00.812Z,100352.00
2018-09-13T09:56:28.648Z,100352.00
2018-09-13T09:58:56.183Z,100351.00
2018-09-13T10:01:29.565Z,100356.00
2018-09-13T10:03:57.784Z,100356.00
2018-09-13T10:06:25.391Z,100343.00
2018-09-13T10:08:53.004Z,100343.00
2018-09-13T10:11:20.592Z,100343.00
2018-09-13T10:13:48.395Z,100335.00
2018-09-13T10:16:21.665Z,100335.00
2018-09-13T10:18:54.035Z,100342.00
2018-09-13T10:21:27.584Z,100348.00
2018-09-13T10:24:01.036Z,100346.00
2018-09-13T10:26:34.520Z,100336.00
2018-09-13T10:29:07.992Z,100332.00
2018-09-13T10:31:41.370Z,100333.00
2018-09-13T10:34:14.856Z,100325.00
2018-09-13T10:36:48.549Z,100327.00
2018-09-13T10:39:22.175Z,100326.00
2018-09-13T10:41:55.364Z,100322.00
2018-09-13T10:44:28.640Z,100317.00
2018-09-13T10:47:01.907Z,100319.00
2018-09-13T10:49:35.661Z,100323.00
2018-09-13T10:52:04.731Z,100322.00
2018-09-13T10:54:36.932Z,100317.00
2018-09-13T10:57:10.327Z,100310.00
2018-09-13T10:59:38.088Z,100303.00
2018-09-13T11:02:05.632Z,100297.00
2018-09-13T11:04:33.469Z,100305.00
2018-09-13T11:07:01.325Z,100305.00
2018-09-13T11:09:29.130Z,100304.00
2018-09-13T11:11:56.682Z,100296.00
2018-09-13T11:14:34.064Z,100295.00
2018-09-13T11:17:01.915Z,100297.00
2018-09-13T11:19:29.520Z,100299.00
2018-09-13T11:21:57.316Z,100304.00
2018-09-13T11:24:25.028Z,100299.00
2018-09-13T11:26:52.552Z,100297.00
2018-09-13T11:29:20.556Z,100297.00
2018-09-13T11:31:48.163Z,100300.00
2018-09-13T11:34:15.765Z,100301.00
2018-09-13T11:36:43.938Z,100306.00
2018-09-13T11:39:12.501Z,100313.00
2018-09-13T11:41:40.097Z,100320.00
2018-09-13T11:44:07.998Z,100324.00
2018-09-13T11:46:36.092Z,100315.00
2018-09-13T11:49:03.722Z,100304.00
2018-09-13T11:51:31.608Z,100293.00
2018-09-13T11:53:59.327Z,100278.00
2018-09-13T11:56:26.881Z,100273.00
2018-09-13T11:58:54.452Z,100258.00
2018-09-13T12:01:22.037Z,100267.00
2018-09-13T12:03:49.608Z,100300.00
2018-09-13T12:06:17.496Z,100314.00
2018-09-13T12:08:45.048Z,100304.00
2018-09-13T12:11:12.827Z,100298.00
2018-09-13T12:13:40.372Z,100301.00
2018-09-13T12:16:08.860Z,100302.00
2018-09-13T12:18:36.896Z,100305.00
2018-09-13T12:21:04.422Z,100304.00
2018-09-13T12:23:32.104Z,100307.00
2018-09-13T12:26:00.275Z,100304.00
2018-09-13T12:28:27.807Z,100302.00
2018-09-13T12:30:56.074Z,100309.00
2018-09-13T12:33:23.880Z,100313.00
2018-09-13T12:35:51.448Z,100320.00
2018-09-13T12:38:20.372Z,100329.00
2018-09-13T12:40:48.409Z,100320.00
2018-09-13T12:43:15.958Z,100311.00
2018-09-13T12:45:43.495Z,100300.00
2018-09-13T12:48:11.356Z,100286.00
2018-09-13T12:50:38.916Z,100270.00
2018-09-13T12:53:06.493Z,100264.00
2018-09-13T12:55:40.082Z,100305.00
2018-09-13T12:58:07.696Z,100309.00
2018-09-13T13:00:35.240Z,100302.00
2018-09-13T13:03:02.947Z,100293.00
2018-09-13T13:05:30.506Z,100287.00
2018-09-13T13:07:58.084Z,100288.00
2018-09-13T13:10:25.964Z,100295.00
2018-09-13T13:12:53.506Z,100304.00
2018-09-13T13:15:21.128Z,100297.00
2018-09-13T13:17:48.966Z,100293.00
2018-09-13T13:20:16.532Z,100292.00
2018-09-13T13:22:44.230Z,100297.00
2018-09-13T13:25:11.916Z,100296.00
2018-09-13T13:27:39.566Z,100293.00
2018-09-13T13:30:07.020Z,100291.00
2018-09-13T13:32:34.877Z,100290.00
2018-09-13T13:35:02.462Z,100285.00
2018-09-13T13:37:30.596Z,100287.00
2018-09-13T13:39:58.120Z,100288.00
2018-09-13T13:42:25.705Z,100282.00
2018-09-13T13:44:53.320Z,100282.00
2018-09-13T13:47:21.088Z,100282.00
2018-09-13T13:49:49.096Z,100284.00
2018-09-13T13:52:17.636Z,100283.00
2018-09-13T13:54:45.252Z,100274.00
2018-09-13T13:57:12.806Z,100276.00
2018-09-13T13:59:40.644Z,100267.00
2018-09-13T14:02:08.200Z,100267.00
2018-09-13T14:04:35.757Z,100271.00
2018-09-13T14:07:03.635Z,100262.00
2018-09-13T14:09:31.220Z,100258.00
2018-09-13T14:11:58.769Z,100257.00
2018-09-13T14:14:26.528Z,100260.00
2018-09-13T14:16:54.127Z,100259.00
2018-09-13T14:19:21.687Z,100259.00
2018-09-13T14:21:49.381Z,100260.00
2018-09-13T14:24:16.907Z,100262.00
2018-09-13T14:26:44.529Z,100260.00
2018-09-13T14:29:12.548Z,100264.00
2018-09-13T14:31:40.819Z,100259.00
2018-09-13T14:34:08.385Z,100257.00
2018-09-13T14:36:35.987Z,100264.00
2018-09-13T14:39:06.222Z,100263.00
2018-09-13T14:41:34.112Z,100265.00
2018-09-13T14:44:01.791Z,100258.00
2018-09-13T14:46:29.892Z,100256.00
2018-09-13T14:48:57.463Z,100255.00
2018-09-13T14:51:25.716Z,100250.00
2018-09-13T14:53:53.842Z,100249.00
2018-09-13T14:56:21.716Z,100247.00
2018-09-13T14:58:49.393Z,100244.00
2018-09-13T15:01:16.953Z,100247.00
2018-09-13T15:03:44.616Z,100249.00
2018-09-13T15:06:12.383Z,100252.00
2018-09-13T15:08:39.943Z,100247.00
2018-09-13T15:11:07.527Z,100249.00
2018-09-13T15:13:35.471Z,100243.00
2018-09-13T15:16:02.979Z,100243.00
2018-09-13T15:18:30.548Z,100241.00
2018-09-13T15:20:58.388Z,100238.00
2018-09-13T15:23:26.092Z,100233.00
2018-09-13T15:25:53.666Z,100236.00
2018-09-13T15:28:21.681Z,100234.00
2018-09-13T15:30:49.250Z,100240.00
2018-09-13T15:33:18.305Z,100243.00
2018-09-13T15:35:46.459Z,100241.00
2018-09-13T15:38:13.976Z,100250.00
2018-09-13T15:40:41.561Z,100255.00
2018-09-13T15:43:09.555Z,100263.00
2018-09-13T15:45:37.404Z,100265.00
2018-09-13T15:48:08.530Z,100256.00
2018-09-13T15:50:36.434Z,100257.00
2018-09-13T15:53:07.887Z,100254.00
2018-09-13T15:55:35.441Z,100256.00
2018-09-13T15:58:03.308Z,100252.00
2018-09-13T16:00:30.887Z,100245.00
2018-09-13T16:02:58.449Z,100241.00
2018-09-13T16:05:26.101Z,100233.00
2018-09-13T16:07:53.661Z,100230.00
2018-09-13T16:10:21.188Z,100232.00
2018-09-13T16:12:49.338Z,100239.00
2018-09-13T16:15:16.880Z,100235.00
2018-09-13T16:17:44.538Z,100240.00
2018-09-13T16:20:12.820Z,100232.00
2018-09-13T16:22:40.810Z,100229.00
2018-09-13T16:25:08.407Z,100226.00
2018-09-13T16:27:35.988Z,100230.00
2018-09-13T16:30:03.759Z,100239.00
2018-09-13T16:32:31.308Z,100239.00
2018-09-13T16:34:59.571Z,100242.00
2018-09-13T16:37:33.096Z,100237.00
2018-09-13T16:40:09.827Z,100235.00
2018-09-13T16:42:52.399Z,100237.00
2018-09-13T16:45:22.056Z,100233.00
2018-09-13T16:47:55.643Z,100233.00
2018-09-13T16:50:23.640Z,100235.00
2018-09-13T16:52:51.239Z,100230.00
2018-09-13T16:55:18.772Z,100232.00
2018-09-13T16:57:47.383Z,100232.00
2018-09-13T17:00:14.917Z,100221.00
2018-09-13T17:02:42.542Z,100222.00
2018-09-13T17:05:10.652Z,100225.00
2018-09-13T17:07:38.252Z,100225.00
2018-09-13T17:10:06.356Z,100221.00
2018-09-13T17:12:34.140Z,100220.00
2018-09-13T17:15:01.802Z,100215.00
2018-09-13T17:17:29.421Z,100220.00
2018-09-13T17:19:57.340Z,100224.00
2018-09-13T17:22:25.525Z,100229.00
2018-09-13T17:24:53.148Z,100236.00
2018-09-13T17:27:21.074Z,100235.00
2018-09-13T17:29:48.644Z,100243.00
2018-09-13T17:32:16.416Z,100247.00
2018-09-13T17:34:43.959Z,100242.00
2018-09-13T17:37:11.499Z,100248.00
2018-09-13T17:39:39.509Z,100249.00
2018-09-13T17:42:07.081Z,100242.00
2018-09-13T17:44:35.477Z,100250.00
2018-09-13T17:47:03.296Z,100249.00
2018-09-13T17:49:30.830Z,100248.00
2018-09-13T17:51:58.503Z,100257.00
2018-09-13T17:54:26.328Z,100253.00
2018-09-13T17:56:53.905Z,100257.00
2018-09-13T17:59:21.508Z,100260.00
2018-09-13T18:01:49.719Z,100257.00
2018-09-13T18:04:17.292Z,100258.00
2018-09-13T18:06:44.932Z,100260.00
2018-09-13T18:09:12.797Z,100255.00
2018-09-13T18:11:40.368Z,100259.00
2018-09-13T18:14:07.935Z,100255.00
2018-09-13T18:16:36.035Z,100257.00
2018-09-13T18:19:03.678Z,100254.00
2018-09-13T18:21:31.227Z,100246.00
2018-09-13T18:23:58.816Z,100253.00
2018-09-13T18:26:26.309Z,100257.00
2018-09-13T18:28:53.901Z,100260.00
2018-09-13T18:31:21.678Z,100268.00
2018-09-13T18:33:49.633Z,100275.00
2018-09-13T18:36:17.284Z,100282.00
2018-09-13T18:38:44.940Z,100286.00
2018-09-13T18:41:12.756Z,100288.00
2018-09-13T18:43:40.340Z,100291.00
2018-09-13T18:46:07.599Z,100284.00
2018-09-13T18:48:35.548Z,100285.00
2018-09-13T18:51:03.113Z,100286.00
2018-09-13T18:53:30.708Z,100285.00
2018-09-13T18:55:58.285Z,100279.00
2018-09-13T18:58:25.963Z,100285.00
2018-09-13T19:00:53.998Z,100286.00
2018-09-13T19:03:21.515Z,100288.00
2018-09-13T19:05:56.183Z,100291.00
2018-09-13T19:08:23.776Z,100294.00
2018-09-13T19:10:51.403Z,100292.00
2018-09-13T19:13:19.041Z,100290.00
2018-09-13T19:15:46.621Z,100294.00
2018-09-13T19:18:14.401Z,100298.00
2018-09-13T19:20:41.924Z,100291.00
2018-09-13T19:23:09.502Z,100291.00
2018-09-13T19:25:37.496Z,100295.00
2018-09-13T19:28:05.072Z,100294.00
2018-09-13T19:30:32.761Z,100294.00
2018-09-13T19:33:00.774Z,100293.00
2018-09-13T19:35:28.402Z,100291.00
2018-09-13T19:37:55.926Z,100293.00
2018-09-13T19:40:23.723Z,100301.00
2018-09-13T19:42:51.579Z,100306.00
2018-09-13T19:45:19.320Z,100304.00
2018-09-13T19:47:47.228Z,100308.00
2018-09-13T19:50:15.409Z,100313.00
2018-09-13T19:52:42.941Z,100319.00
2018-09-13T19:55:10.655Z,100331.00
2018-09-13T19:57:38.267Z,100332.00
2018-09-13T20:00:06.608Z,100331.00
2018-09-13T20:02:34.310Z,100334.00
2018-09-13T20:05:01.920Z,100337.00
2018-09-13T20:07:29.491Z,100338.00
2018-09-13T20:09:57.581Z,100342.00
2018-09-13T20:12:25.102Z,100336.00
2018-09-13T20:14:53.059Z,100333.00
2018-09-13T20:17:20.864Z,100338.00
2018-09-13T20:19:48.505Z,100336.00
2018-09-13T20:22:16.050Z,100339.00
2018-09-13T20:24:43.775Z,100337.00
2018-09-13T20:27:11.386Z,100339.00
2018-09-13T20:29:38.963Z,100335.00
2018-09-13T20:32:06.845Z,100332.00
2018-09-13T20:34:34.425Z,100327.00
2018-09-13T20:37:02.018Z,100325.00
2018-09-13T20:39:29.711Z,100322.00
2018-09-13T20:41:57.280Z,100319.00
2018-09-13T20:44:24.860Z,100323.00
2018-09-13T20:46:52.910Z,100324.00
2018-09-13T20:49:20.506Z,100328.00
2018-09-13T20:51:48.003Z,100334.00
2018-09-13T20:54:15.864Z,100334.00
2018-09-13T20:56:43.480Z,100331.00
2018-09-13T20:59:11.064Z,100335.00
2018-09-13T21:01:38.793Z,100335.00
2018-09-13T21:04:06.440Z,100339.00
2018-09-13T21:06:34.344Z,100338.00
2018-09-13T21:09:01.902Z,100337.00
2018-09-13T21:11:30.702Z,100342.00
2018-09-13T21:13:58.407Z,100350.00
2018-09-13T21:16:26.049Z,100355.00
2018-09-13T21:18:53.725Z,100353.00
2018-09-13T21:21:21.292Z,100358.00
2018-09-13T21:23:48.810Z,100353.00
2018-09-13T21:26:16.687Z,100351.00
2018-09-13T21:28:44.272Z,100356.00
2018-09-13T21:31:11.880Z,100350.00
2018-09-13T21:33:39.669Z,100350.00
2018-09-13T21:36:07.438Z,100351.00
2018-09-13T21:38:35.257Z,100352.00
2018-09-13T21:41:02.889Z,100346.00
2018-09-13T21:43:30.619Z,100348.00
2018-09-13T21:45:59.041Z,100349.00
2018-09-13T21:48:26.754Z,100350.00
2018-09-13T21:50:54.287Z,100360.00
2018-09-13T21:53:22.149Z,100359.00
2018-09-13T21:55:54.908Z,100359.00
2018-09-13T21:58:22.647Z,100358.00
2018-09-13T22:00:50.412Z,100360.00
2018-09-13T22:03:18.081Z,100358.00
2018-09-13T22:05:45.829Z,100359.00
2018-09-13T22:08:13.407Z,100360.00
2018-09-13T22:10:41.051Z,100354.00
2018-09-13T22:13:09.329Z,100355.00
2018-09-13T22:15:36.981Z,100355.00
2018-09-13T22:18:04.969Z,100345.00
2018-09-13T22:20:33.768Z,100349.00
2018-09-13T22:23:01.686Z,100350.00
2018-09-13T22:25:30.278Z,100357.00
2018-09-13T22:27:58.535Z,100361.00
2018-09-13T22:30:26.147Z,100358.00
2018-09-13T22:32:53.673Z,100362.00
2018-09-13T22:35:22.105Z,100365.00
2018-09-13T22:37:49.684Z,100364.00
2018-09-13T22:40:17.295Z,100366.00
2018-09-13T22:42:45.242Z,100369.00
2018-09-13T22:45:12.814Z,100368.00
2018-09-13T22:47:40.327Z,100368.00
2018-09-13T22:50:08.248Z,100365.00
2018-09-13T22:52:35.968Z,100363.00
2018-09-13T22:55:03.740Z,100369.00
2018-09-13T22:57:31.632Z,100365.00
2018-09-13T22:59:59.133Z,100365.00
2018-09-13T23:02:26.700Z,100368.00
2018-09-13T23:04:54.260Z,100370.00
2018-09-13T23:07:21.876Z,100373.00
2018-09-13T23:09:49.573Z,100367.00
2018-09-13T23:12:20.802Z,100372.00
2018-09-13T23:14:48.332Z,100369.00
2018-09-13T23:17:18.563Z,100369.00
2018-09-13T23:19:46.099Z,100367.00
2018-09-13T23:22:13.641Z,100367.00
2018-09-13T23:24:42.209Z,100368.00
2018-09-13T23:27:09.784Z,100370.00
2018-09-13T23:29:37.622Z,100366.00
2018-09-13T23:32:05.532Z,100366.00
2018-09-13T23:34:33.070Z,100366.00
2018-09-13T23:37:00.733Z,100368.00
2018-09-13T23:39:28.661Z,100366.00
2018-09-13T23:41:56.312Z,100368.00
2018-09-13T23:44:23.856Z,100372.00
2018-09-13T23:46:51.596Z,100371.00
2018-09-13T23:49:19.155Z,100368.00
2018-09-13T23:51:46.686Z,100374.00
2018-09-13T23:54:14.548Z,100370.00
2018-09-13T23:56:42.724Z,100373.00
2018-09-13T23:59:10.275Z,100371.00
